createdAt,value
2023-05-08T00:05:46.048Z,10.6
2023-05-08T00:11:37.723Z,10.4
2023-05-08T00:17:29.478Z,10.2
2023-05-08T00:23:21.656Z,10.1
2023-05-08T00:29:13.239Z,9.9
2023-05-08T00:34:49.552Z,9.7
2023-05-08T00:40:40.657Z,9.6
2023-05-08T00:46:32.806Z,9.4
2023-05-08T00:52:08.244Z,9.2
2023-05-08T00:57:28.096Z,9.1
2023-05-08T01:03:05.591Z,8.9
2023-05-08T01:08:26.056Z,8.9
2023-05-08T01:14:16.676Z,8.8
2023-05-08T01:20:08.087Z,8.6
2023-05-08T01:25:59.491Z,8.6
2023-05-08T01:31:51.096Z,8.5
2023-05-08T01:37:43.614Z,8.4
2023-05-08T01:43:35.685Z,8.3
2023-05-08T01:49:11.451Z,8.3
2023-05-08T01:55:04.412Z,8.2
2023-05-08T02:00:55.614Z,8.1
2023-05-08T02:06:47.246Z,8
2023-05-08T02:12:39.452Z,8
2023-05-08T02:18:31.658Z,7.9
2023-05-08T02:24:23.085Z,7.9
2023-05-08T02:30:15.252Z,7.8
2023-05-08T02:36:15.057Z,7.8
2023-05-08T02:42:06.607Z,7.7
2023-05-08T02:48:01.303Z,7.6
2023-05-08T02:53:53.176Z,7.6
2023-05-08T02:59:44.475Z,7.5
2023-05-08T03:05:37.203Z,7.4
2023-05-08T03:11:28.273Z,7.4
2023-05-08T03:17:19.769Z,7.3
2023-05-08T03:23:11.913Z,7.3
2023-05-08T03:29:02.821Z,7.3
2023-05-08T03:34:55.088Z,7.3
2023-05-08T03:40:46.684Z,7.3
2023-05-08T03:46:38.163Z,7.3
2023-05-08T03:52:30.023Z,7.3
2023-05-08T03:58:22.309Z,7.3
2023-05-08T04:04:13.902Z,7.4
2023-05-08T04:10:12.875Z,7.4
2023-05-08T04:16:07.488Z,7.6
2023-05-08T04:21:59.065Z,7.8
2023-05-08T04:27:50.645Z,7.9
2023-05-08T04:33:43.347Z,8.2
2023-05-08T04:39:35.684Z,8.5
2023-05-08T04:45:27.882Z,8.8
2023-05-08T04:51:20.780Z,9.3
2023-05-08T04:57:11.621Z,9.9
2023-05-08T05:03:03.125Z,10.5
2023-05-08T05:08:55.382Z,11.3
2023-05-08T05:14:48.055Z,12.1
2023-05-08T05:20:40.541Z,13
2023-05-08T05:26:32.162Z,14.4
2023-05-08T05:32:23.235Z,16
2023-05-08T05:38:15.712Z,18
2023-05-08T05:44:07.570Z,20.3
2023-05-08T05:50:01.744Z,16.4
2023-05-08T05:55:53.663Z,29.8
2023-05-08T06:01:45.777Z,28.9
2023-05-08T06:07:40.050Z,28.4
2023-05-08T06:13:31.661Z,32.1
2023-05-08T06:19:26.459Z,32.5
2023-05-08T06:25:17.770Z,33.1
2023-05-08T06:31:09.539Z,33.3
2023-05-08T06:37:05.006Z,33.6
2023-05-08T06:43:06.168Z,34.4
2023-05-08T06:48:58.728Z,35.4
2023-05-08T06:54:51.140Z,35.7
2023-05-08T07:00:51.719Z,35.8
2023-05-08T07:06:44.397Z,35.6
2023-05-08T07:12:36.938Z,34.6
2023-05-08T07:18:44.823Z,34.6
2023-05-08T07:24:38.700Z,34.8
2023-05-08T07:30:33.075Z,35.1
2023-05-08T07:36:24.961Z,35.8
2023-05-08T07:42:02.412Z,36.6
2023-05-08T07:47:50.990Z,37.9
2023-05-08T07:53:44.311Z,38.4
2023-05-08T07:59:36.057Z,38.9
2023-05-08T08:05:14.058Z,39.5
2023-05-08T08:11:06.184Z,39.6
2023-05-08T08:16:59.419Z,40.1
2023-05-08T08:22:52.773Z,41.2
2023-05-08T08:28:45.025Z,41.3
2023-05-08T08:34:50.170Z,41.4
2023-05-08T08:40:43.654Z,41.6
2023-05-08T08:46:24.247Z,41.6
2023-05-08T08:52:17.417Z,41.8
2023-05-08T08:58:09.903Z,41.6
2023-05-08T09:04:04.861Z,41.3
2023-05-08T09:09:57.885Z,41
2023-05-08T09:15:54.154Z,40.7
2023-05-08T09:21:47.653Z,40.4
2023-05-08T09:27:24.533Z,39.1
2023-05-08T09:33:18.024Z,39.2
2023-05-08T09:39:10.663Z,38.9
2023-05-08T09:45:03.314Z,39
2023-05-08T09:50:58.590Z,39.3
2023-05-08T09:56:50.694Z,40
2023-05-08T10:02:43.660Z,41.1
2023-05-08T10:08:40.158Z,41.1
2023-05-08T10:14:48.668Z,41.4
2023-05-08T10:20:40.545Z,41.3
2023-05-08T10:26:32.776Z,41.3
2023-05-08T10:32:40.219Z,42.4
2023-05-08T10:38:32.626Z,44.1
2023-05-08T10:44:25.813Z,45.3
2023-05-08T10:50:18.413Z,46.3
2023-05-08T10:56:11.401Z,47.2
2023-05-08T11:02:03.691Z,47.9
2023-05-08T11:08:09.299Z,48.9
2023-05-08T11:14:01.495Z,49.6
2023-05-08T11:20:05.307Z,50.3
2023-05-08T11:25:57.213Z,50.9
2023-05-08T11:31:49.493Z,51.6
2023-05-08T11:37:42.037Z,52
2023-05-08T11:43:33.277Z,52.2
2023-05-08T11:49:28.414Z,52.6
2023-05-08T11:55:21.032Z,52.5
2023-05-08T12:00:59.518Z,52.2
2023-05-08T12:07:10.665Z,53.1
2023-05-08T12:13:04.025Z,52.5
2023-05-08T12:24:32.694Z,51.7
2023-05-08T12:30:24.601Z,51.1
2023-05-08T12:36:16.403Z,52.2
2023-05-08T12:42:08.352Z,52.8
2023-05-08T12:53:37.738Z,52.3
2023-05-08T12:59:14.395Z,51.6
2023-05-08T13:05:20.697Z,51.4
2023-05-08T13:11:15.536Z,51.3
2023-05-08T13:17:08.900Z,50.8
2023-05-08T13:23:01.864Z,50.1
2023-05-08T13:28:55.464Z,49.3
2023-05-08T13:34:51.592Z,48
2023-05-08T13:40:45.281Z,46.6
2023-05-08T13:46:37.925Z,44
2023-05-08T13:52:35.084Z,41.4
2023-05-08T13:58:30.473Z,39.3
2023-05-08T14:04:37.923Z,37.3
2023-05-08T14:10:34.854Z,35.6
2023-05-08T14:16:31.895Z,34
2023-05-08T14:22:25.005Z,32.5
2023-05-08T14:28:18.132Z,31.1
2023-05-08T14:33:57.636Z,29.9
2023-05-08T14:39:33.769Z,29.3
2023-05-08T14:45:46.585Z,28.6
2023-05-08T15:13:39.953Z,27.9
2023-05-08T15:19:35.119Z,26.9
2023-05-08T15:25:27.034Z,26.1
2023-05-08T15:31:19.124Z,25.2
2023-05-08T15:37:00.479Z,24.4
2023-05-08T15:42:51.784Z,23.8
2023-05-08T15:48:55.963Z,23.1
2023-05-08T15:54:48.781Z,22.5
2023-05-08T16:00:49.675Z,21.9
2023-05-08T16:06:43.070Z,21.4
2023-05-08T16:12:37.927Z,20.9
2023-05-08T16:18:30.273Z,20.4
2023-05-08T16:24:07.516Z,20
2023-05-08T16:30:01.775Z,19.6
2023-05-08T16:35:57.974Z,19.3
2023-05-08T16:41:57.010Z,18.9
2023-05-08T16:53:42.854Z,18.4
2023-05-08T16:59:28.539Z,18.1
2023-05-08T17:05:32.302Z,17.9
2023-05-08T17:11:32.922Z,17.6
2023-05-08T17:17:34.223Z,17.3
2023-05-08T17:29:20.446Z,16.7
2023-05-08T17:35:24.906Z,16.4
2023-05-08T17:41:27.912Z,16.1
2023-05-08T17:47:28.944Z,15.9
2023-05-08T17:53:31.525Z,15.6
2023-05-08T17:59:34.014Z,15.4
2023-05-08T18:05:31.881Z,15.2
2023-05-08T18:11:26.399Z,14.9
2023-05-08T18:17:20.212Z,14.7
2023-05-08T18:23:12.501Z,14.4
2023-05-08T18:29:05.070Z,14.2
2023-05-08T18:34:59.362Z,14
2023-05-08T18:40:53.824Z,13.8
2023-05-08T18:46:31.548Z,13.7
2023-05-08T18:52:24.951Z,13.6
2023-05-08T18:58:17.833Z,13.4
2023-05-08T19:04:11.866Z,13.3
2023-05-08T19:10:05.282Z,13.3
2023-05-08T19:15:58.018Z,13.1
2023-05-08T19:21:51.270Z,13.1
2023-05-08T19:27:45.393Z,13
2023-05-08T19:33:23.038Z,12.9
2023-05-08T19:39:16.206Z,12.9
2023-05-08T19:45:25.713Z,12.9
2023-05-08T19:51:24.646Z,12.8
2023-05-08T19:57:18.483Z,12.8
2023-05-08T20:03:12.391Z,12.8
2023-05-08T20:09:25.868Z,12.7
2023-05-08T20:15:03.470Z,12.7
2023-05-08T20:20:57.718Z,12.6
2023-05-08T20:26:48.779Z,12.6
2023-05-08T20:32:42.857Z,12.6
2023-05-08T20:38:36.622Z,12.6
2023-05-08T20:44:27.818Z,12.6
2023-05-08T20:50:20.414Z,12.5
2023-05-08T20:56:18.862Z,12.5
2023-05-08T21:01:58.540Z,12.5
2023-05-08T21:07:51.498Z,12.5
2023-05-08T21:13:44.986Z,12.4
2023-05-08T21:19:36.462Z,12.4
2023-05-08T21:25:29.230Z,12.4
2023-05-08T21:31:22.804Z,12.4
2023-05-08T21:37:15.078Z,12.3
2023-05-08T21:43:06.749Z,12.3
2023-05-08T21:48:59.919Z,12.3
2023-05-08T21:54:49.343Z,12.2
2023-05-08T22:00:42.096Z,12.1
2023-05-08T22:06:36.299Z,12.1
2023-05-08T22:12:28.158Z,11.9
2023-05-08T22:18:37.492Z,11.9
2023-05-08T22:24:30.719Z,11.8
2023-05-08T22:30:06.827Z,11.7
2023-05-08T22:35:59.037Z,11.6
2023-05-08T22:41:51.592Z,11.5
2023-05-08T22:47:43.208Z,11.3
2023-05-08T22:53:35.425Z,11.2
2023-05-08T22:59:29.215Z,11.1
2023-05-08T23:05:20.785Z,10.9
2023-05-08T23:11:12.757Z,10.8
2023-05-08T23:17:05.708Z,10.7
2023-05-08T23:22:56.293Z,10.6
2023-05-08T23:28:50.174Z,10.5
2023-05-08T23:34:43.282Z,10.4
2023-05-08T23:40:33.842Z,10.3
2023-05-08T23:46:25.986Z,10.3
2023-05-08T23:52:19.471Z,10.1
2023-05-08T23:58:11.146Z,10.1
